This is the latest recevied weather packets stored in our database for station/object WMKI. If no packets are shown the sender has not sent any weather packets the latest 10 day(s).
| Time | Temp. | Humidity | Pressure | Rain* | Wind** | Luminosity | Snow |
|---|---|---|---|---|---|---|---|
| 1777565431 | 25.56° C | 94% | 1011 hPa | - | - | - | - |
| 1777561832 | 25.56° C | 94% | 1011 hPa | - | - | - | - |
| 1777558231 | 25.56° C | 88% | 1010 hPa | - | - | - | - |
| 1777554646 | 25° C | 94% | 1009 hPa | - | - | - | - |
| 1777551031 | 25° C | 94% | 1008 hPa | - | - | - | - |
| 1777547431 | 25° C | 94% | 1007 hPa | - | - | - | - |
| 1777543831 | 30.56° C | 74% | 1006 hPa | - | - | - | - |
| 1777540246 | 33.89° C | 63% | 1005 hPa | - | - | - | - |
| 1777536630 | 33.89° C | 63% | 1006 hPa | - | - | - | - |
| 1777533027 | 33.89° C | 59% | 1007 hPa | - | - | - | - |
| 1777529430 | 33.89° C | 63% | 1008 hPa | - | - | - | - |
| 1777525846 | 32.78° C | 66% | 1009 hPa | - | - | - | - |
| 1777522226 | 32.78° C | 62% | 1010 hPa | - | - | - | - |
| 1777518630 | 30.56° C | 70% | 1010 hPa | - | - | - | - |
| 1777515030 | 30° C | 74% | 1010 hPa | - | - | - | - |
| 1777511430 | 27.78° C | 83% | 1010 hPa | - | - | - | - |
| 1777507853 | 26.67° C | 88% | 1009 hPa | - | - | - | - |
| 1777504229 | 25.56° C | 94% | 1008 hPa | - | - | - | - |
| 1777500629 | 26.67° C | 88% | 1008 hPa | - | - | - | - |
| 1777497030 | 26.67° C | 88% | 1008 hPa | - | - | - | - |
| 1777495194 | 26.67° C | 94% | 1009 hPa | - | - | - | - |
| 1777494586 | 26.67° C | 94% | 1009 hPa | - | - | - | - |
| 1777493450 | 26.67° C | 94% | 1009 hPa | - | - | - | - |
| 1777489829 | 26.67° C | 88% | 1009 hPa | - | - | - | - |
| 1777486229 | 27.78° C | 83% | 1009 hPa | - | - | - | - |
* Rain since midnight (hover to see other rain measurements)
** Current wind speed in m/s (hover to see current wind gust speed)